Terminal Aerodrome Forecast
Issued by NWS

Home | Current Version | Previous Version | Graphics & Text | Print | Product List | Glossary On
Versions: 1 2 3 4 5 6 7 8 9 10 11 12 13 14 15
759
FTUS43 KTOP 202321
TAFFOE
TAF
KFOE 202321Z 2100/2124 20007KT P6SM FEW100
     FM211700 19013G22KT P6SM FEW200=

USA.gov is the U.S. government's official web portal to all federal, state and local government web resources and services.